Flight Track Log - Related Links

Times and Time Zones

All times are in EDT time to prevent confusion due to time zone crossing. See the PDT4314 flight status page for this flight to view local times or setup timezone preferences in your user account.

Time Position Orientation Groundspeed Altitude Reporting Facility
EDT Latitude Longitude Course Direction KTS MPH feet Rate Location/Type
Sun 05:56:45 PM 39.9000 -75.2333 294° West 113 130 400  Level Philadelphia TRACON
Sun 05:57:51 PM 39.9167 -75.2833 294° West 133 153 1,900 1,190 Climbing Philadelphia TRACON
Sun 05:58:51 PM 39.9167 -75.3167 270° West 134 154 2,900 950 Climbing Philadelphia TRACON
Sun 05:59:00 PM 40.0653 -75.2999 323° Northwest  Level Estimated
Sun 05:59:51 PM 39.9333 -75.3667 294° West 137 158 3,800  Level Philadelphia TRACON
Sun 06:00:00 PM 40.1296 -75.3197 311° West  Level Estimated
Sun 06:00:57 PM 39.9500 -75.4167 294° West 146 168 4,900  Level Philadelphia TRACON
Sun 06:01:00 PM 40.1940 -75.3395 311° West  Level Estimated
Sun 06:01:57 PM 39.9833 -75.4500 323° Northwest 143 165 6,000  Level Philadelphia TRACON
Sun 06:02:00 PM 40.2210 -75.4184 294° West  Level FlightAware Approximate
Sun 06:02:52 PM 40.0167 -75.4667 339° North 140 161 7,000  Level Philadelphia TRACON
Sun 06:04:16 PM 40.0628 -75.4928 337° Northwest 152 175 8,100 786 Climbing New York Center
Sun 06:05:17 PM 40.0994 -75.5117 338° Northwest 152 175 8,900 850 Climbing New York Center
Sun 06:06:16 PM 40.1467 -75.5283 345° North 152 175 9,800 756 Climbing New York Center
Sun 06:07:16 PM 40.1881 -75.5394 348° North 157 181 10,400 650 Climbing New York Center
Sun 06:08:16 PM 40.2331 -75.5614 340° North 167 192 11,100 800 Climbing New York Center
Sun 06:09:16 PM 40.2756 -75.5944 329° Northwest 167 192 12,000 850 Climbing New York Center
Sun 06:10:16 PM 40.3225 -75.6167 340° North 167 192 12,800 750 Climbing New York Center
Sun 06:11:16 PM 40.3631 -75.6442 333° Northwest 167 192 13,500 600 Climbing New York Center
Sun 06:12:16 PM 40.4017 -75.6686 334° Northwest 172 198 14,000 250 Climbing New York Center
Sun 06:13:16 PM 40.4503 -75.6994 334° Northwest 178 205 14,000  Level New York Center
Sun 06:14:16 PM 40.5069 -75.7417 330° Northwest 202 232 14,000  Level New York Center
Sun 06:15:16 PM 40.5617 -75.7756 335° Northwest 215 247 14,000  Level New York Center
Sun 06:16:16 PM 40.6189 -75.8072 337° Northwest 215 247 14,000  Level New York Center
Sun 06:17:16 PM 40.6672 -75.8436 330° Northwest 215 247 14,000  Level New York Center
Sun 06:18:16 PM 40.7239 -75.8806 334° Northwest 220 253 14,000  Level New York Center
Sun 06:19:16 PM 40.7850 -75.9181 335° Northwest 220 253 14,000  Level New York Center
Sun 06:20:16 PM 40.8369 -75.9658 325° Northwest 214 246 14,000  Level New York Center
Sun 06:21:16 PM 40.8836 -75.9969 333° Northwest 221 254 14,000  Level New York Center
Sun 06:22:16 PM 40.9425 -76.0317 336° Northwest 221 254 14,000  Level New York Center
Sun 06:23:16 PM 41.0078 -76.0614 341° North 221 254 14,000  Level New York Center
Sun 06:24:16 PM 41.0669 -76.0908 339° North 228 262 14,000  Level New York Center
Sun 06:25:16 PM 41.1153 -76.1278 330° Northwest 228 262 14,000  Level New York Center
Sun 06:26:16 PM 41.1697 -76.1678 331° Northwest 223 257 14,000  Level New York Center
Sun 06:27:16 PM 41.2322 -76.2114 332° Northwest 223 257 14,000  Level New York Center
Sun 06:28:16 PM 41.2989 -76.2086 North 223 257 14,000  Level New York Center
Sun 06:29:16 PM 41.3686 -76.1919 10° North 241 277 14,000  Level New York Center
Sun 06:30:16 PM 41.4311 -76.1914 360° North 246 283 14,000 -233 Level New York Center
Sun 06:32:16 PM 41.5792 -76.1842 North 252 290 13,300 -567 Descending New York Center
Sun 06:33:16 PM 41.6567 -76.1764 North 267 307 12,300 -1,200 Descending New York Center
Sun 06:34:16 PM 41.7319 -76.1714 North 277 319 10,900 -1,550 Descending New York Center
Sun 06:35:16 PM 41.7986 -76.1686 North 272 313 9,200 -1,600 Descending New York Center
Sun 06:36:16 PM 41.8675 -76.1658 North 262 302 7,700 -1,650 Descending New York Center
Sun 06:37:16 PM 41.9406 -76.1606 North 247 284 5,900 -1,350 Descending New York Center
Sun 06:38:16 PM 42.0044 -76.1267 22° Northeast 241 277 5,000 -900 Descending New York Center
Sun 06:39:16 PM 42.0625 -76.0867 27° Northeast 231 266 4,100 -800 Descending New York Center
Sun 06:40:16 PM 42.1167 -76.0408 32° Northeast 231 266 3,400 -700 Descending New York Center
Sun 06:41:16 PM 42.1522 -75.9878 48° Northeast 209 241 2,700 -700 Descending New York Center
Sun 06:42:16 PM 42.1828 -75.9592 35° Northeast 167 192 2,000 -350 Descending New York Center
Sun 06:43:16 PM 42.2142 -75.9058 52° Northeast 167 192 2,000  Level New York Center

Login

Don't have an account? Register now (free) for customized features, flight alerts, and more!